createdAt,value
2023-02-22T00:04:10.481Z,100672.97
2023-02-22T00:09:20.870Z,100668.66
2023-02-22T00:14:28.948Z,100671.22
2023-02-22T00:19:35.501Z,100678.06
2023-02-22T00:24:41.871Z,100678.91
2023-02-22T00:29:50.193Z,100679.63
2023-02-22T00:34:56.637Z,100685.63
2023-02-22T00:40:08.869Z,100693.34
2023-02-22T00:45:20.605Z,100700.16
2023-02-22T00:50:29.468Z,100707.72
2023-02-22T00:55:40.289Z,100717.94
2023-02-22T01:00:48.992Z,100724.75
2023-02-22T01:05:55.227Z,100737.50
2023-02-22T01:11:01.819Z,100744.31
2023-02-22T01:16:10.104Z,100762.31
2023-02-22T01:21:16.967Z,100763.94
2023-02-22T01:26:23.474Z,100757.13
2023-02-22T01:31:31.119Z,100770.88
2023-02-22T01:36:38.032Z,100767.97
2023-02-22T01:41:44.681Z,100775.56
2023-02-22T01:46:52.878Z,100780.75
2023-02-22T01:52:03.448Z,100785.81
2023-02-22T01:57:17.494Z,100787.47
2023-02-22T02:02:25.699Z,100788.16
2023-02-22T02:07:33.620Z,100789.97
2023-02-22T02:12:40.247Z,100794.44
2023-02-22T02:17:49.661Z,100797.19
2023-02-22T02:23:10.244Z,100802.34
2023-02-22T02:29:10.710Z,100799.81
2023-02-22T02:34:25.710Z,100804.09
2023-02-22T02:39:37.473Z,100804.19
2023-02-22T02:44:48.671Z,100809.28
2023-02-22T02:50:01.968Z,100809.22
2023-02-22T02:55:12.202Z,100808.34
2023-02-22T03:00:26.280Z,100815.88
2023-02-22T03:06:06.120Z,100817.66
2023-02-22T03:11:17.002Z,100821.91
2023-02-22T03:16:35.711Z,100834.88
2023-02-22T03:21:51.461Z,100833.25
2023-02-22T03:27:05.258Z,100840.06
2023-02-22T03:32:17.614Z,100844.44
2023-02-22T03:37:29.389Z,100841.00
2023-02-22T03:42:39.247Z,100850.41
2023-02-22T03:47:51.906Z,100863.09
2023-02-22T03:53:00.647Z,100867.28
2023-02-22T03:58:14.137Z,100871.56
2023-02-22T04:03:21.373Z,100878.41
2023-02-22T04:08:30.576Z,100879.16
2023-02-22T04:13:36.456Z,100883.38
2023-02-22T04:18:42.550Z,100893.69
2023-02-22T04:23:50.458Z,100887.69
2023-02-22T04:28:57.018Z,100890.25
2023-02-22T04:34:05.409Z,100894.53
2023-02-22T04:39:17.371Z,100899.63
2023-02-22T04:44:24.298Z,100896.09
2023-02-22T04:49:34.518Z,100893.47
2023-02-22T04:54:43.423Z,100899.41
2023-02-22T04:59:51.621Z,100902.25
2023-02-22T05:05:02.921Z,100906.66
2023-02-22T05:10:12.101Z,100909.28
2023-02-22T05:15:20.524Z,100906.72
2023-02-22T05:20:30.702Z,100914.31
2023-02-22T05:25:38.992Z,100911.69
2023-02-22T05:30:45.622Z,100917.75
2023-02-22T05:35:52.288Z,100925.47
2023-02-22T05:41:00.115Z,100931.28
2023-02-22T05:46:07.713Z,100944.94
2023-02-22T05:51:14.380Z,100942.56
2023-02-22T05:56:27.037Z,100946.97
2023-02-22T06:01:33.860Z,100955.63
2023-02-22T06:06:40.443Z,100964.19
2023-02-22T06:11:48.564Z,100970.22
2023-02-22T06:16:56.105Z,100982.00
2023-02-22T06:22:05.055Z,100990.44
2023-02-22T06:27:12.947Z,100998.41
2023-02-22T06:32:19.421Z,101005.38
2023-02-22T06:37:25.914Z,101010.63
2023-02-22T06:42:33.970Z,101017.50
2023-02-22T06:47:43.697Z,101019.31
2023-02-22T06:52:49.874Z,101023.69
2023-02-22T06:57:58.294Z,101038.28
2023-02-22T07:03:07.010Z,101028.75
2023-02-22T07:08:14.420Z,101033.16
2023-02-22T07:13:22.530Z,101039.13
2023-02-22T07:18:30.014Z,101048.66
2023-02-22T07:23:40.384Z,101057.34
2023-02-22T07:28:48.494Z,101050.59
2023-02-22T07:33:55.781Z,101049.19
2023-02-22T07:39:02.097Z,101043.13
2023-02-22T07:44:10.044Z,101041.50
2023-02-22T07:49:16.472Z,101047.41
2023-02-22T07:54:22.956Z,101047.31
2023-02-22T07:59:31.030Z,101048.22
2023-02-22T08:04:37.486Z,101056.84
2023-02-22T08:09:43.740Z,101058.53
2023-02-22T08:14:51.538Z,101065.41
2023-02-22T08:19:57.896Z,101069.75
2023-02-22T08:25:04.217Z,101079.25
2023-02-22T08:30:16.429Z,101070.66
2023-02-22T08:35:24.478Z,101087.03
2023-02-22T08:40:33.557Z,101088.66
2023-02-22T08:45:41.046Z,101086.13
2023-02-22T08:50:47.335Z,101082.00
2023-02-22T08:55:54.473Z,101088.06
2023-02-22T09:01:02.502Z,101087.41
2023-02-22T09:06:09.327Z,101089.94
2023-02-22T09:11:16.412Z,101096.94
2023-02-22T09:16:24.488Z,101105.31
2023-02-22T09:21:31.944Z,101095.91
2023-02-22T09:26:40.308Z,101111.53
2023-02-22T09:31:48.140Z,101116.72
2023-02-22T09:36:54.582Z,101133.25
2023-02-22T09:42:11.038Z,101142.59
2023-02-22T09:47:32.707Z,101146.72
2023-02-22T09:52:49.275Z,101145.75
2023-02-22T09:57:58.167Z,101158.66
2023-02-22T10:03:21.216Z,101159.94
2023-02-22T10:08:33.685Z,101163.50
2023-02-22T10:13:53.607Z,101160.22
2023-02-22T10:19:29.582Z,101153.13
2023-02-22T10:24:48.034Z,101161.00
2023-02-22T10:30:01.174Z,101153.66
2023-02-22T10:35:22.669Z,101156.25
2023-02-22T10:40:33.615Z,101156.06
2023-02-22T10:45:40.206Z,101159.84
2023-02-22T10:50:50.808Z,101145.00
2023-02-22T10:56:15.196Z,101152.97
2023-02-22T11:01:41.101Z,101142.69
2023-02-22T11:06:51.950Z,101148.75
2023-02-22T11:12:13.150Z,101150.59
2023-02-22T11:17:32.937Z,101152.00
2023-02-22T11:22:43.681Z,101153.13
2023-02-22T11:27:50.562Z,101150.53
2023-02-22T11:33:01.482Z,101151.53
2023-02-22T11:38:21.405Z,101154.09
2023-02-22T11:43:28.037Z,101163.00
2023-02-22T11:48:39.793Z,101156.19
2023-02-22T11:54:09.646Z,101164.84
2023-02-22T11:59:32.328Z,101175.03
2023-02-22T12:05:08.399Z,101168.09
2023-02-22T12:10:28.591Z,101157.94
2023-02-22T12:15:41.546Z,101156.09
2023-02-22T12:20:55.585Z,101163.00
2023-02-22T12:26:11.881Z,101173.38
2023-02-22T12:31:25.633Z,101178.41
2023-02-22T12:36:41.433Z,101168.22
2023-02-22T12:41:53.328Z,101173.56
2023-02-22T12:47:02.817Z,101180.25
2023-02-22T12:52:22.340Z,101191.28
2023-02-22T12:57:43.140Z,101182.69
2023-02-22T13:02:59.205Z,101198.06
2023-02-22T13:08:23.080Z,101198.06
2023-02-22T13:13:43.251Z,101201.41
2023-02-22T13:18:58.862Z,101201.38
2023-02-22T13:24:13.862Z,101203.81
2023-02-22T13:29:28.820Z,101204.47
2023-02-22T13:35:12.589Z,101202.63
2023-02-22T13:40:46.995Z,101205.09
2023-02-22T13:46:39.389Z,101219.78
2023-02-22T13:51:57.093Z,101223.34
2023-02-22T13:57:04.820Z,101218.63
2023-02-22T14:02:55.895Z,101217.78
2023-02-22T14:08:02.649Z,101217.69
2023-02-22T14:13:09.866Z,101223.69
2023-02-22T14:18:21.185Z,101220.97
2023-02-22T14:23:38.293Z,101231.19
2023-02-22T14:28:57.463Z,101222.75
2023-02-22T14:34:16.530Z,101239.69
2023-02-22T14:39:33.119Z,101238.75
2023-02-22T14:44:50.642Z,101236.09
2023-02-22T14:50:06.900Z,101239.44
2023-02-22T14:55:26.116Z,101242.88
2023-02-22T15:00:42.950Z,101239.44
2023-02-22T15:05:51.307Z,101243.09
2023-02-22T15:10:59.200Z,101241.47
2023-02-22T15:16:08.792Z,101250.00
2023-02-22T15:21:18.938Z,101249.75
2023-02-22T15:26:31.706Z,101242.78
2023-02-22T15:31:44.391Z,101247.94
2023-02-22T15:36:56.572Z,101251.31
2023-02-22T15:42:09.713Z,101251.31
2023-02-22T15:47:21.458Z,101252.09
2023-02-22T15:52:30.001Z,101253.06
2023-02-22T15:57:37.991Z,101259.19
2023-02-22T16:02:45.091Z,101270.31
2023-02-22T16:07:55.307Z,101269.47
2023-02-22T16:13:22.176Z,101275.47
2023-02-22T16:18:41.131Z,101274.53
2023-02-22T16:24:01.358Z,101285.81
2023-02-22T16:29:28.627Z,101288.34
2023-02-22T16:34:35.374Z,101278.91
2023-02-22T16:39:47.722Z,101288.31
2023-02-22T16:44:55.033Z,101287.41
2023-02-22T16:50:02.501Z,101295.28
2023-02-22T16:55:17.167Z,101303.84
2023-02-22T17:00:32.891Z,101306.41
2023-02-22T17:05:40.924Z,101306.34
2023-02-22T17:10:53.381Z,101302.97
2023-02-22T17:16:02.170Z,101307.34
2023-02-22T17:21:13.579Z,101309.06
2023-02-22T17:26:22.742Z,101308.13
2023-02-22T17:31:32.826Z,101302.97
2023-02-22T17:36:40.641Z,101309.84
2023-02-22T17:41:58.411Z,101308.97
2023-02-22T17:47:06.576Z,101308.16
2023-02-22T17:52:16.809Z,101312.34
2023-02-22T17:57:27.684Z,101308.91
2023-02-22T18:02:39.571Z,101319.22
2023-02-22T18:07:48.215Z,101309.75
2023-02-22T18:13:02.231Z,101318.16
2023-02-22T18:18:12.708Z,101319.09
2023-02-22T18:23:28.899Z,101322.28
2023-02-22T18:28:43.440Z,101324.00
2023-02-22T18:33:58.633Z,101328.19
2023-02-22T18:39:13.046Z,101329.72
2023-02-22T18:44:35.154Z,101331.25
2023-02-22T18:49:44.668Z,101320.91
2023-02-22T18:55:01.975Z,101326.97
2023-02-22T19:00:29.202Z,101318.16
2023-02-22T19:05:40.613Z,101319.88
2023-02-22T19:10:53.254Z,101315.69
2023-02-22T19:16:08.044Z,101321.75
2023-02-22T19:21:19.515Z,101322.53
2023-02-22T19:26:31.860Z,101318.09
2023-02-22T19:37:36.960Z,101332.72
2023-02-22T19:42:48.605Z,101332.56
2023-02-22T19:47:59.084Z,101334.94
2023-02-22T19:53:16.786Z,101339.19
2023-02-22T19:58:26.408Z,101340.91
2023-02-22T20:03:39.568Z,101347.47
2023-02-22T20:08:52.058Z,101348.22
2023-02-22T20:14:03.442Z,101348.88
2023-02-22T20:19:12.148Z,101346.72
2023-02-22T20:24:28.361Z,101353.44
2023-02-22T20:29:43.720Z,101345.75
2023-02-22T20:34:53.871Z,101346.13
2023-02-22T20:40:08.948Z,101350.88
2023-02-22T20:45:20.798Z,101337.72
2023-02-22T20:50:34.151Z,101342.31
2023-02-22T20:55:53.447Z,101343.44
2023-02-22T21:01:12.523Z,101341.25
2023-02-22T21:06:23.703Z,101352.84
2023-02-22T21:11:39.321Z,101354.00
2023-02-22T21:16:56.478Z,101360.91
2023-02-22T21:22:13.716Z,101356.38
2023-02-22T21:27:25.024Z,101360.00
2023-02-22T21:32:36.227Z,101360.75
2023-02-22T21:37:48.198Z,101351.13
2023-02-22T21:42:59.185Z,101351.78
2023-02-22T21:48:09.881Z,101344.94
2023-02-22T21:53:18.989Z,101356.31
2023-02-22T21:58:31.295Z,101358.50
2023-02-22T22:03:38.566Z,101349.84
2023-02-22T22:08:49.135Z,101356.69
2023-02-22T22:14:05.700Z,101357.41
2023-02-22T22:19:16.337Z,101354.25
2023-02-22T22:24:29.812Z,101349.47
2023-02-22T22:29:44.483Z,101347.94
2023-02-22T22:34:57.424Z,101341.13
2023-02-22T22:40:16.631Z,101338.16
2023-02-22T22:45:28.357Z,101340.63
2023-02-22T22:50:41.201Z,101339.91
2023-02-22T22:55:50.798Z,101341.47
2023-02-22T23:01:02.113Z,101342.97
2023-02-22T23:06:10.706Z,101332.03
2023-02-22T23:11:18.578Z,101320.47
2023-02-22T23:16:27.348Z,101323.28
2023-02-22T23:21:36.189Z,101324.09
2023-02-22T23:26:42.885Z,101329.00
2023-02-22T23:31:51.820Z,101321.44
2023-02-22T23:36:58.019Z,101317.16
2023-02-22T23:42:04.782Z,101315.97
2023-02-22T23:47:12.968Z,101322.25
2023-02-22T23:52:24.491Z,101316.19
2023-02-22T23:57:33.183Z,101317.25
